sensor_id;sensor_type;location;lat;lon;timestamp;temperature;humidity
32600;DHT22;19277;51.778;7.912;2022-07-24T00:02:07;21.10;78.70
32600;DHT22;19277;51.778;7.912;2022-07-24T00:04:33;21.30;78.10
32600;DHT22;19277;51.778;7.912;2022-07-24T00:06:59;21.50;77.80
32600;DHT22;19277;51.778;7.912;2022-07-24T00:09:24;21.70;77.40
32600;DHT22;19277;51.778;7.912;2022-07-24T00:11:50;21.90;77.10
32600;DHT22;19277;51.778;7.912;2022-07-24T00:14:17;22.00;76.70
32600;DHT22;19277;51.778;7.912;2022-07-24T00:16:43;22.20;76.40
32600;DHT22;19277;51.778;7.912;2022-07-24T00:19:09;22.30;76.10
32600;DHT22;19277;51.778;7.912;2022-07-24T00:21:34;22.40;75.70
32600;DHT22;19277;51.778;7.912;2022-07-24T00:24:01;22.50;75.60
32600;DHT22;19277;51.778;7.912;2022-07-24T00:26:26;22.60;75.40
32600;DHT22;19277;51.778;7.912;2022-07-24T00:28:52;22.70;75.30
32600;DHT22;19277;51.778;7.912;2022-07-24T00:31:18;22.70;75.10
32600;DHT22;19277;51.778;7.912;2022-07-24T00:33:44;22.80;75.20
32600;DHT22;19277;51.778;7.912;2022-07-24T00:36:10;22.90;75.10
32600;DHT22;19277;51.778;7.912;2022-07-24T00:38:36;22.90;75.00
32600;DHT22;19277;51.778;7.912;2022-07-24T00:41:01;23.00;74.90
32600;DHT22;19277;51.778;7.912;2022-07-24T00:43:27;23.00;74.70
32600;DHT22;19277;51.778;7.912;2022-07-24T00:45:53;23.00;74.60
32600;DHT22;19277;51.778;7.912;2022-07-24T00:48:18;23.10;74.80
32600;DHT22;19277;51.778;7.912;2022-07-24T00:50:44;23.20;74.70
32600;DHT22;19277;51.778;7.912;2022-07-24T00:53:10;23.20;74.70
32600;DHT22;19277;51.778;7.912;2022-07-24T00:55:36;23.20;74.60
32600;DHT22;19277;51.778;7.912;2022-07-24T00:58:03;23.30;74.50
32600;DHT22;19277;51.778;7.912;2022-07-24T01:00:29;23.30;74.50
32600;DHT22;19277;51.778;7.912;2022-07-24T01:02:54;23.30;75.00
32600;DHT22;19277;51.778;7.912;2022-07-24T01:05:20;23.30;74.50
32600;DHT22;19277;51.778;7.912;2022-07-24T01:07:46;23.40;74.40
32600;DHT22;19277;51.778;7.912;2022-07-24T01:10:11;23.40;74.30
32600;DHT22;19277;51.778;7.912;2022-07-24T01:12:39;23.40;74.20
32600;DHT22;19277;51.778;7.912;2022-07-24T01:15:07;23.40;74.20
32600;DHT22;19277;51.778;7.912;2022-07-24T01:17:35;23.40;74.10
32600;DHT22;19277;51.778;7.912;2022-07-24T01:20:01;23.50;74.10
32600;DHT22;19277;51.778;7.912;2022-07-24T01:22:27;23.50;74.00
32600;DHT22;19277;51.778;7.912;2022-07-24T01:24:54;23.50;74.00
32600;DHT22;19277;51.778;7.912;2022-07-24T01:27:23;23.50;74.00
32600;DHT22;19277;51.778;7.912;2022-07-24T01:29:50;23.50;74.00
32600;DHT22;19277;51.778;7.912;2022-07-24T01:32:16;23.50;73.90
32600;DHT22;19277;51.778;7.912;2022-07-24T01:34:42;23.60;73.90
32600;DHT22;19277;51.778;7.912;2022-07-24T01:37:07;23.60;73.80
32600;DHT22;19277;51.778;7.912;2022-07-24T01:39:33;23.60;73.80
32600;DHT22;19277;51.778;7.912;2022-07-24T01:41:59;23.60;73.80
32600;DHT22;19277;51.778;7.912;2022-07-24T01:44:24;23.70;73.80
32600;DHT22;19277;51.778;7.912;2022-07-24T01:46:50;23.60;73.70
32600;DHT22;19277;51.778;7.912;2022-07-24T01:49:16;23.70;73.70
32600;DHT22;19277;51.778;7.912;2022-07-24T01:51:41;23.70;73.70
32600;DHT22;19277;51.778;7.912;2022-07-24T01:54:07;23.70;73.70
32600;DHT22;19277;51.778;7.912;2022-07-24T01:56:32;23.70;73.70
32600;DHT22;19277;51.778;7.912;2022-07-24T01:58:58;23.70;73.80
32600;DHT22;19277;51.778;7.912;2022-07-24T02:01:25;23.80;73.80
32600;DHT22;19277;51.778;7.912;2022-07-24T02:03:51;23.80;73.80
32600;DHT22;19277;51.778;7.912;2022-07-24T02:06:17;23.80;73.80
32600;DHT22;19277;51.778;7.912;2022-07-24T02:08:44;23.80;73.80
32600;DHT22;19277;51.778;7.912;2022-07-24T02:11:09;23.80;73.70
32600;DHT22;19277;51.778;7.912;2022-07-24T02:13:35;23.80;73.80
32600;DHT22;19277;51.778;7.912;2022-07-24T02:16:01;23.80;73.80
32600;DHT22;19277;51.778;7.912;2022-07-24T02:18:27;23.80;73.70
32600;DHT22;19277;51.778;7.912;2022-07-24T02:20:53;23.80;73.70
32600;DHT22;19277;51.778;7.912;2022-07-24T02:23:18;23.80;73.80
32600;DHT22;19277;51.778;7.912;2022-07-24T02:25:48;23.80;73.80
32600;DHT22;19277;51.778;7.912;2022-07-24T02:28:15;23.90;74.00
32600;DHT22;19277;51.778;7.912;2022-07-24T02:30:41;23.90;74.20
32600;DHT22;19277;51.778;7.912;2022-07-24T02:33:08;23.90;74.20
32600;DHT22;19277;51.778;7.912;2022-07-24T02:35:34;23.90;74.30
32600;DHT22;19277;51.778;7.912;2022-07-24T02:38:00;23.90;74.30
32600;DHT22;19277;51.778;7.912;2022-07-24T02:40:27;23.90;74.40
32600;DHT22;19277;51.778;7.912;2022-07-24T02:42:52;23.90;74.40
32600;DHT22;19277;51.778;7.912;2022-07-24T02:45:18;23.90;74.40
32600;DHT22;19277;51.778;7.912;2022-07-24T02:47:52;23.90;74.50
32600;DHT22;19277;51.778;7.912;2022-07-24T02:50:19;23.90;74.40
32600;DHT22;19277;51.778;7.912;2022-07-24T02:52:44;23.90;74.50
32600;DHT22;19277;51.778;7.912;2022-07-24T02:55:10;23.90;74.50
32600;DHT22;19277;51.778;7.912;2022-07-24T02:57:36;23.90;74.50
32600;DHT22;19277;51.778;7.912;2022-07-24T03:00:07;23.90;74.60
32600;DHT22;19277;51.778;7.912;2022-07-24T03:02:33;23.90;74.60
32600;DHT22;19277;51.778;7.912;2022-07-24T03:04:59;24.00;74.60
32600;DHT22;19277;51.778;7.912;2022-07-24T03:07:25;24.00;74.60
32600;DHT22;19277;51.778;7.912;2022-07-24T03:09:50;24.00;74.50
32600;DHT22;19277;51.778;7.912;2022-07-24T03:12:16;24.00;74.60
32600;DHT22;19277;51.778;7.912;2022-07-24T03:14:42;24.00;74.60
32600;DHT22;19277;51.778;7.912;2022-07-24T03:17:07;24.00;74.60
32600;DHT22;19277;51.778;7.912;2022-07-24T03:19:33;24.00;74.60
32600;DHT22;19277;51.778;7.912;2022-07-24T03:21:59;24.00;74.60
32600;DHT22;19277;51.778;7.912;2022-07-24T03:24:24;24.10;74.70
32600;DHT22;19277;51.778;7.912;2022-07-24T03:26:50;24.10;74.90
32600;DHT22;19277;51.778;7.912;2022-07-24T03:29:15;24.10;74.80
32600;DHT22;19277;51.778;7.912;2022-07-24T03:31:41;24.10;74.70
32600;DHT22;19277;51.778;7.912;2022-07-24T03:34:08;24.10;74.70
32600;DHT22;19277;51.778;7.912;2022-07-24T03:36:33;24.10;74.70
32600;DHT22;19277;51.778;7.912;2022-07-24T03:38:59;24.10;74.70
32600;DHT22;19277;51.778;7.912;2022-07-24T03:41:25;24.10;74.70
32600;DHT22;19277;51.778;7.912;2022-07-24T03:43:50;24.10;74.70
32600;DHT22;19277;51.778;7.912;2022-07-24T03:46:16;24.10;74.70
32600;DHT22;19277;51.778;7.912;2022-07-24T03:48:41;24.10;74.70
32600;DHT22;19277;51.778;7.912;2022-07-24T03:51:07;24.10;74.70
32600;DHT22;19277;51.778;7.912;2022-07-24T03:53:33;24.10;74.70
32600;DHT22;19277;51.778;7.912;2022-07-24T03:55:58;24.10;75.20
32600;DHT22;19277;51.778;7.912;2022-07-24T03:58:24;24.20;74.80
32600;DHT22;19277;51.778;7.912;2022-07-24T04:00:49;24.20;74.80
32600;DHT22;19277;51.778;7.912;2022-07-24T04:03:15;24.20;74.90
32600;DHT22;19277;51.778;7.912;2022-07-24T04:05:40;24.10;74.90
32600;DHT22;19277;51.778;7.912;2022-07-24T04:08:06;24.20;74.90
32600;DHT22;19277;51.778;7.912;2022-07-24T04:10:32;24.20;74.80
32600;DHT22;19277;51.778;7.912;2022-07-24T04:12:57;24.20;74.80
32600;DHT22;19277;51.778;7.912;2022-07-24T04:15:23;24.20;74.80
32600;DHT22;19277;51.778;7.912;2022-07-24T04:17:48;24.20;74.80
32600;DHT22;19277;51.778;7.912;2022-07-24T04:20:14;24.20;74.70
32600;DHT22;19277;51.778;7.912;2022-07-24T04:22:40;24.20;74.70
32600;DHT22;19277;51.778;7.912;2022-07-24T04:25:06;24.20;74.80
32600;DHT22;19277;51.778;7.912;2022-07-24T04:27:32;24.20;74.70
32600;DHT22;19277;51.778;7.912;2022-07-24T04:29:58;24.20;74.60
32600;DHT22;19277;51.778;7.912;2022-07-24T04:32:24;24.20;74.60
32600;DHT22;19277;51.778;7.912;2022-07-24T04:34:50;24.30;74.80
32600;DHT22;19277;51.778;7.912;2022-07-24T04:37:16;24.30;74.90
32600;DHT22;19277;51.778;7.912;2022-07-24T04:39:41;24.30;74.90
32600;DHT22;19277;51.778;7.912;2022-07-24T04:42:07;24.30;74.90
32600;DHT22;19277;51.778;7.912;2022-07-24T04:44:32;24.30;75.00
32600;DHT22;19277;51.778;7.912;2022-07-24T04:46:58;24.40;75.10
32600;DHT22;19277;51.778;7.912;2022-07-24T04:49:24;24.40;75.00
32600;DHT22;19277;51.778;7.912;2022-07-24T04:51:49;24.40;75.00
32600;DHT22;19277;51.778;7.912;2022-07-24T04:54:15;24.40;74.90
32600;DHT22;19277;51.778;7.912;2022-07-24T04:56:41;24.40;74.90
32600;DHT22;19277;51.778;7.912;2022-07-24T04:59:06;24.40;74.80
32600;DHT22;19277;51.778;7.912;2022-07-24T05:01:32;24.40;74.80
32600;DHT22;19277;51.778;7.912;2022-07-24T05:03:58;24.50;74.80
32600;DHT22;19277;51.778;7.912;2022-07-24T05:06:24;24.50;74.70
32600;DHT22;19277;51.778;7.912;2022-07-24T05:08:50;24.50;74.60
32600;DHT22;19277;51.778;7.912;2022-07-24T05:11:16;24.60;74.60
32600;DHT22;19277;51.778;7.912;2022-07-24T05:13:42;24.60;74.50
32600;DHT22;19277;51.778;7.912;2022-07-24T05:16:07;24.60;74.40
32600;DHT22;19277;51.778;7.912;2022-07-24T05:18:33;24.60;74.40
32600;DHT22;19277;51.778;7.912;2022-07-24T05:20:58;24.70;74.40
32600;DHT22;19277;51.778;7.912;2022-07-24T05:23:24;24.70;74.30
32600;DHT22;19277;51.778;7.912;2022-07-24T05:25:50;24.70;74.20
32600;DHT22;19277;51.778;7.912;2022-07-24T05:28:16;24.70;74.30
32600;DHT22;19277;51.778;7.912;2022-07-24T05:30:41;24.70;74.20
32600;DHT22;19277;51.778;7.912;2022-07-24T05:33:07;24.80;74.20
32600;DHT22;19277;51.778;7.912;2022-07-24T05:35:32;24.80;74.20
32600;DHT22;19277;51.778;7.912;2022-07-24T05:37:58;24.80;74.10
32600;DHT22;19277;51.778;7.912;2022-07-24T05:40:24;24.90;74.20
32600;DHT22;19277;51.778;7.912;2022-07-24T05:42:49;24.90;74.30
32600;DHT22;19277;51.778;7.912;2022-07-24T05:45:15;24.90;74.60
32600;DHT22;19277;51.778;7.912;2022-07-24T05:47:41;24.90;74.10
32600;DHT22;19277;51.778;7.912;2022-07-24T05:50:08;24.90;72.60
32600;DHT22;19277;51.778;7.912;2022-07-24T05:52:34;24.90;73.80
32600;DHT22;19277;51.778;7.912;2022-07-24T05:55:00;25.00;74.10
32600;DHT22;19277;51.778;7.912;2022-07-24T05:57:26;25.00;74.20
32600;DHT22;19277;51.778;7.912;2022-07-24T05:59:51;25.00;74.40
32600;DHT22;19277;51.778;7.912;2022-07-24T06:02:17;25.00;74.40
32600;DHT22;19277;51.778;7.912;2022-07-24T06:04:42;25.00;74.80
32600;DHT22;19277;51.778;7.912;2022-07-24T06:07:11;25.10;74.40
32600;DHT22;19277;51.778;7.912;2022-07-24T06:09:38;25.10;74.30
32600;DHT22;19277;51.778;7.912;2022-07-24T06:12:04;25.10;74.40
32600;DHT22;19277;51.778;7.912;2022-07-24T06:14:31;25.10;74.30
32600;DHT22;19277;51.778;7.912;2022-07-24T06:16:57;25.10;74.30
32600;DHT22;19277;51.778;7.912;2022-07-24T06:19:22;25.10;74.30
32600;DHT22;19277;51.778;7.912;2022-07-24T06:21:48;25.20;74.40
32600;DHT22;19277;51.778;7.912;2022-07-24T06:24:14;25.10;74.20
32600;DHT22;19277;51.778;7.912;2022-07-24T06:26:39;25.20;74.30
32600;DHT22;19277;51.778;7.912;2022-07-24T06:29:05;25.20;74.20
32600;DHT22;19277;51.778;7.912;2022-07-24T06:31:30;25.20;74.20
32600;DHT22;19277;51.778;7.912;2022-07-24T06:33:56;25.20;74.20
32600;DHT22;19277;51.778;7.912;2022-07-24T06:36:22;25.20;74.20
32600;DHT22;19277;51.778;7.912;2022-07-24T06:38:47;25.30;74.30
32600;DHT22;19277;51.778;7.912;2022-07-24T06:41:14;25.30;74.20
32600;DHT22;19277;51.778;7.912;2022-07-24T06:43:39;25.30;74.20
32600;DHT22;19277;51.778;7.912;2022-07-24T06:46:06;25.30;74.20
32600;DHT22;19277;51.778;7.912;2022-07-24T06:48:31;25.30;74.20
32600;DHT22;19277;51.778;7.912;2022-07-24T06:50:57;25.30;74.20
32600;DHT22;19277;51.778;7.912;2022-07-24T06:53:22;25.30;74.20
32600;DHT22;19277;51.778;7.912;2022-07-24T06:55:48;25.40;74.20
32600;DHT22;19277;51.778;7.912;2022-07-24T06:58:14;25.40;74.30
32600;DHT22;19277;51.778;7.912;2022-07-24T07:00:40;25.40;74.70
32600;DHT22;19277;51.778;7.912;2022-07-24T07:03:05;25.40;74.20
32600;DHT22;19277;51.778;7.912;2022-07-24T07:05:31;25.40;74.20
32600;DHT22;19277;51.778;7.912;2022-07-24T07:07:57;25.40;74.20
32600;DHT22;19277;51.778;7.912;2022-07-24T07:10:23;25.40;74.10
32600;DHT22;19277;51.778;7.912;2022-07-24T07:12:49;25.40;74.20
32600;DHT22;19277;51.778;7.912;2022-07-24T07:15:14;25.40;74.20
32600;DHT22;19277;51.778;7.912;2022-07-24T07:17:41;25.50;74.20
32600;DHT22;19277;51.778;7.912;2022-07-24T07:20:09;25.50;74.30
32600;DHT22;19277;51.778;7.912;2022-07-24T07:22:35;25.50;74.30
32600;DHT22;19277;51.778;7.912;2022-07-24T07:25:00;25.50;74.40
32600;DHT22;19277;51.778;7.912;2022-07-24T07:27:26;25.50;74.40
32600;DHT22;19277;51.778;7.912;2022-07-24T07:29:51;25.50;74.40
32600;DHT22;19277;51.778;7.912;2022-07-24T07:32:17;25.50;74.50
32600;DHT22;19277;51.778;7.912;2022-07-24T07:34:43;25.50;74.80
32600;DHT22;19277;51.778;7.912;2022-07-24T07:37:08;25.50;74.90
32600;DHT22;19277;51.778;7.912;2022-07-24T07:39:34;25.50;75.10
32600;DHT22;19277;51.778;7.912;2022-07-24T07:42:00;25.50;75.30
32600;DHT22;19277;51.778;7.912;2022-07-24T07:44:25;25.50;75.50
32600;DHT22;19277;51.778;7.912;2022-07-24T07:46:51;25.50;75.60
32600;DHT22;19277;51.778;7.912;2022-07-24T07:49:18;25.50;75.70
32600;DHT22;19277;51.778;7.912;2022-07-24T07:51:43;25.50;75.70
32600;DHT22;19277;51.778;7.912;2022-07-24T07:54:15;25.50;75.80
32600;DHT22;19277;51.778;7.912;2022-07-24T07:56:41;25.60;75.90
32600;DHT22;19277;51.778;7.912;2022-07-24T07:59:07;25.60;76.10
32600;DHT22;19277;51.778;7.912;2022-07-24T08:01:33;25.60;76.40
32600;DHT22;19277;51.778;7.912;2022-07-24T08:03:58;25.60;76.40
32600;DHT22;19277;51.778;7.912;2022-07-24T08:06:24;25.60;76.40
32600;DHT22;19277;51.778;7.912;2022-07-24T08:08:50;25.60;76.50
32600;DHT22;19277;51.778;7.912;2022-07-24T08:11:15;25.60;76.60
32600;DHT22;19277;51.778;7.912;2022-07-24T08:13:42;25.60;76.60
32600;DHT22;19277;51.778;7.912;2022-07-24T08:16:08;25.60;76.90
32600;DHT22;19277;51.778;7.912;2022-07-24T08:18:33;25.60;77.00
32600;DHT22;19277;51.778;7.912;2022-07-24T08:20:59;25.60;77.10
32600;DHT22;19277;51.778;7.912;2022-07-24T08:23:24;25.60;77.20
32600;DHT22;19277;51.778;7.912;2022-07-24T08:25:50;25.60;77.30
32600;DHT22;19277;51.778;7.912;2022-07-24T08:28:16;25.60;77.50
32600;DHT22;19277;51.778;7.912;2022-07-24T08:30:41;25.60;77.70
32600;DHT22;19277;51.778;7.912;2022-07-24T08:33:07;25.60;77.70
32600;DHT22;19277;51.778;7.912;2022-07-24T08:35:33;25.60;77.70
32600;DHT22;19277;51.778;7.912;2022-07-24T08:37:58;25.60;77.70
32600;DHT22;19277;51.778;7.912;2022-07-24T08:40:24;25.60;77.60
32600;DHT22;19277;51.778;7.912;2022-07-24T08:42:49;25.60;77.90
32600;DHT22;19277;51.778;7.912;2022-07-24T08:45:15;25.60;78.00
32600;DHT22;19277;51.778;7.912;2022-07-24T08:47:44;25.60;78.10
32600;DHT22;19277;51.778;7.912;2022-07-24T08:50:10;25.60;78.20
32600;DHT22;19277;51.778;7.912;2022-07-24T08:52:37;25.60;77.90
32600;DHT22;19277;51.778;7.912;2022-07-24T08:55:04;25.60;78.10
32600;DHT22;19277;51.778;7.912;2022-07-24T08:57:31;25.60;78.00
32600;DHT22;19277;51.778;7.912;2022-07-24T08:59:57;25.60;77.80
32600;DHT22;19277;51.778;7.912;2022-07-24T09:02:22;25.60;77.60
32600;DHT22;19277;51.778;7.912;2022-07-24T09:04:48;25.60;77.50
32600;DHT22;19277;51.778;7.912;2022-07-24T09:07:20;25.60;77.40
32600;DHT22;19277;51.778;7.912;2022-07-24T09:10:03;25.60;77.30
32600;DHT22;19277;51.778;7.912;2022-07-24T09:12:36;25.60;77.10
32600;DHT22;19277;51.778;7.912;2022-07-24T09:15:13;25.60;77.00
32600;DHT22;19277;51.778;7.912;2022-07-24T09:17:58;25.60;76.90
32600;DHT22;19277;51.778;7.912;2022-07-24T09:20:26;25.60;76.90
32600;DHT22;19277;51.778;7.912;2022-07-24T09:22:53;25.60;76.80
32600;DHT22;19277;51.778;7.912;2022-07-24T09:25:26;25.60;76.60
32600;DHT22;19277;51.778;7.912;2022-07-24T09:30:41;25.60;76.50
32600;DHT22;19277;51.778;7.912;2022-07-24T09:33:15;25.60;76.40
32600;DHT22;19277;51.778;7.912;2022-07-24T09:35:47;25.60;76.40
32600;DHT22;19277;51.778;7.912;2022-07-24T09:38:18;25.60;76.40
32600;DHT22;19277;51.778;7.912;2022-07-24T09:40:49;25.60;76.20
32600;DHT22;19277;51.778;7.912;2022-07-24T09:43:29;25.60;76.20
32600;DHT22;19277;51.778;7.912;2022-07-24T09:51:20;25.60;76.00
32600;DHT22;19277;51.778;7.912;2022-07-24T09:53:52;25.60;75.90
32600;DHT22;19277;51.778;7.912;2022-07-24T09:56:18;25.60;75.90
32600;DHT22;19277;51.778;7.912;2022-07-24T09:58:50;25.60;75.90
32600;DHT22;19277;51.778;7.912;2022-07-24T10:01:23;25.60;75.90
32600;DHT22;19277;51.778;7.912;2022-07-24T10:03:50;25.60;75.90
32600;DHT22;19277;51.778;7.912;2022-07-24T10:06:19;25.60;75.90
32600;DHT22;19277;51.778;7.912;2022-07-24T10:08:47;25.60;75.90
32600;DHT22;19277;51.778;7.912;2022-07-24T10:11:13;25.60;75.70
32600;DHT22;19277;51.778;7.912;2022-07-24T10:13:39;25.70;75.80
32600;DHT22;19277;51.778;7.912;2022-07-24T10:26:37;25.70;75.60
32600;DHT22;19277;51.778;7.912;2022-07-24T10:31:39;25.60;75.50
32600;DHT22;19277;51.778;7.912;2022-07-24T10:34:13;25.60;75.50
32600;DHT22;19277;51.778;7.912;2022-07-24T10:39:30;25.60;75.40
32600;DHT22;19277;51.778;7.912;2022-07-24T10:42:03;25.70;75.50
32600;DHT22;19277;51.778;7.912;2022-07-24T10:44:30;25.60;75.40
32600;DHT22;19277;51.778;7.912;2022-07-24T10:47:07;25.70;75.50
32600;DHT22;19277;51.778;7.912;2022-07-24T10:49:48;25.70;75.40
32600;DHT22;19277;51.778;7.912;2022-07-24T10:52:29;25.70;75.40
32600;DHT22;19277;51.778;7.912;2022-07-24T10:55:31;25.70;75.40
32600;DHT22;19277;51.778;7.912;2022-07-24T10:58:03;25.70;75.30
32600;DHT22;19277;51.778;7.912;2022-07-24T11:03:17;25.70;75.30
32600;DHT22;19277;51.778;7.912;2022-07-24T11:05:43;25.70;75.30
32600;DHT22;19277;51.778;7.912;2022-07-24T11:10:54;25.70;75.30
32600;DHT22;19277;51.778;7.912;2022-07-24T11:18:40;25.70;75.20
32600;DHT22;19277;51.778;7.912;2022-07-24T11:21:06;25.70;75.20
32600;DHT22;19277;51.778;7.912;2022-07-24T11:23:32;25.70;75.20
32600;DHT22;19277;51.778;7.912;2022-07-24T11:29:20;25.70;75.10
32600;DHT22;19277;51.778;7.912;2022-07-24T11:31:53;25.70;75.10
32600;DHT22;19277;51.778;7.912;2022-07-24T11:34:20;25.70;75.10
32600;DHT22;19277;51.778;7.912;2022-07-24T11:36:47;25.80;75.10
32600;DHT22;19277;51.778;7.912;2022-07-24T11:39:14;25.70;75.00
32600;DHT22;19277;51.778;7.912;2022-07-24T11:41:55;25.80;75.10
32600;DHT22;19277;51.778;7.912;2022-07-24T11:44:28;25.80;75.00
32600;DHT22;19277;51.778;7.912;2022-07-24T11:46:54;25.80;75.00
32600;DHT22;19277;51.778;7.912;2022-07-24T11:49:22;25.80;75.00
32600;DHT22;19277;51.778;7.912;2022-07-24T11:51:50;25.80;75.00
32600;DHT22;19277;51.778;7.912;2022-07-24T11:54:25;25.80;75.00
32600;DHT22;19277;51.778;7.912;2022-07-24T11:56:52;25.80;75.00
32600;DHT22;19277;51.778;7.912;2022-07-24T11:59:26;25.80;74.90
32600;DHT22;19277;51.778;7.912;2022-07-24T12:02:07;25.80;74.90
32600;DHT22;19277;51.778;7.912;2022-07-24T12:04:34;25.80;74.90
32600;DHT22;19277;51.778;7.912;2022-07-24T12:07:00;25.80;74.90
32600;DHT22;19277;51.778;7.912;2022-07-24T12:09:26;25.80;74.90
32600;DHT22;19277;51.778;7.912;2022-07-24T12:11:52;25.80;74.90
32600;DHT22;19277;51.778;7.912;2022-07-24T12:14:19;25.80;74.90
32600;DHT22;19277;51.778;7.912;2022-07-24T12:16:55;25.80;74.90
32600;DHT22;19277;51.778;7.912;2022-07-24T12:19:23;25.90;74.90
32600;DHT22;19277;51.778;7.912;2022-07-24T12:21:51;25.90;74.90
32600;DHT22;19277;51.778;7.912;2022-07-24T12:24:17;25.90;74.90
32600;DHT22;19277;51.778;7.912;2022-07-24T12:26:56;25.90;74.90
32600;DHT22;19277;51.778;7.912;2022-07-24T12:29:23;25.90;74.90
32600;DHT22;19277;51.778;7.912;2022-07-24T12:31:52;25.90;75.00
32600;DHT22;19277;51.778;7.912;2022-07-24T12:34:17;25.90;75.10
32600;DHT22;19277;51.778;7.912;2022-07-24T12:36:43;25.90;75.40
32600;DHT22;19277;51.778;7.912;2022-07-24T12:39:11;26.00;75.60
32600;DHT22;19277;51.778;7.912;2022-07-24T12:41:46;25.90;75.70
32600;DHT22;19277;51.778;7.912;2022-07-24T12:44:15;26.00;75.80
32600;DHT22;19277;51.778;7.912;2022-07-24T12:46:42;26.00;76.00
32600;DHT22;19277;51.778;7.912;2022-07-24T12:49:09;26.00;76.10
32600;DHT22;19277;51.778;7.912;2022-07-24T12:51:49;26.00;76.20
32600;DHT22;19277;51.778;7.912;2022-07-24T12:54:20;26.00;76.20
32600;DHT22;19277;51.778;7.912;2022-07-24T12:56:52;26.00;76.20
32600;DHT22;19277;51.778;7.912;2022-07-24T12:59:28;26.00;76.20
32600;DHT22;19277;51.778;7.912;2022-07-24T13:01:56;26.10;76.40
32600;DHT22;19277;51.778;7.912;2022-07-24T13:04:24;26.10;76.50
32600;DHT22;19277;51.778;7.912;2022-07-24T13:06:52;26.10;76.60
32600;DHT22;19277;51.778;7.912;2022-07-24T13:09:19;26.10;76.70
32600;DHT22;19277;51.778;7.912;2022-07-24T13:11:48;26.10;76.80
32600;DHT22;19277;51.778;7.912;2022-07-24T13:14:15;26.10;76.90
32600;DHT22;19277;51.778;7.912;2022-07-24T13:16:43;26.10;77.00
32600;DHT22;19277;51.778;7.912;2022-07-24T13:19:09;26.20;77.20
32600;DHT22;19277;51.778;7.912;2022-07-24T13:21:36;26.20;77.20
32600;DHT22;19277;51.778;7.912;2022-07-24T13:24:05;26.20;77.40
32600;DHT22;19277;51.778;7.912;2022-07-24T13:26:32;26.20;77.40
32600;DHT22;19277;51.778;7.912;2022-07-24T13:28:58;26.20;77.40
32600;DHT22;19277;51.778;7.912;2022-07-24T13:31:24;26.20;77.60
32600;DHT22;19277;51.778;7.912;2022-07-24T13:33:50;26.20;77.60
32600;DHT22;19277;51.778;7.912;2022-07-24T13:36:17;26.20;78.20
32600;DHT22;19277;51.778;7.912;2022-07-24T13:38:43;26.20;77.70
32600;DHT22;19277;51.778;7.912;2022-07-24T13:41:09;26.20;77.80
32600;DHT22;19277;51.778;7.912;2022-07-24T13:43:35;26.20;78.40
32600;DHT22;19277;51.778;7.912;2022-07-24T13:46:01;26.20;77.80
32600;DHT22;19277;51.778;7.912;2022-07-24T13:48:27;26.30;78.10
32600;DHT22;19277;51.778;7.912;2022-07-24T13:50:52;26.30;78.10
32600;DHT22;19277;51.778;7.912;2022-07-24T13:53:18;26.30;78.00
32600;DHT22;19277;51.778;7.912;2022-07-24T13:55:44;26.30;78.10
32600;DHT22;19277;51.778;7.912;2022-07-24T13:58:09;26.30;78.80
32600;DHT22;19277;51.778;7.912;2022-07-24T14:00:35;26.30;78.30
32600;DHT22;19277;51.778;7.912;2022-07-24T14:03:01;26.30;78.30
32600;DHT22;19277;51.778;7.912;2022-07-24T14:05:27;26.30;78.30
32600;DHT22;19277;51.778;7.912;2022-07-24T14:07:53;26.30;78.40
32600;DHT22;19277;51.778;7.912;2022-07-24T14:10:20;26.30;78.30
32600;DHT22;19277;51.778;7.912;2022-07-24T14:12:46;26.30;78.30
32600;DHT22;19277;51.778;7.912;2022-07-24T14:15:12;26.40;78.40
32600;DHT22;19277;51.778;7.912;2022-07-24T14:17:38;26.40;78.30
32600;DHT22;19277;51.778;7.912;2022-07-24T14:20:05;26.30;78.00
32600;DHT22;19277;51.778;7.912;2022-07-24T14:22:33;26.40;78.00
32600;DHT22;19277;51.778;7.912;2022-07-24T14:24:59;26.40;77.90
32600;DHT22;19277;51.778;7.912;2022-07-24T14:27:25;26.40;77.70
32600;DHT22;19277;51.778;7.912;2022-07-24T14:29:51;26.40;77.60
32600;DHT22;19277;51.778;7.912;2022-07-24T14:32:16;26.40;77.60
32600;DHT22;19277;51.778;7.912;2022-07-24T14:34:42;26.40;77.50
32600;DHT22;19277;51.778;7.912;2022-07-24T14:37:08;26.40;77.40
32600;DHT22;19277;51.778;7.912;2022-07-24T14:39:33;26.40;77.30
32600;DHT22;19277;51.778;7.912;2022-07-24T14:41:59;26.50;77.20
32600;DHT22;19277;51.778;7.912;2022-07-24T14:44:24;26.50;77.20
32600;DHT22;19277;51.778;7.912;2022-07-24T14:46:50;26.50;77.10
32600;DHT22;19277;51.778;7.912;2022-07-24T14:49:16;26.40;76.90
32600;DHT22;19277;51.778;7.912;2022-07-24T14:51:41;26.50;76.90
32600;DHT22;19277;51.778;7.912;2022-07-24T14:54:07;26.50;76.90
32600;DHT22;19277;51.778;7.912;2022-07-24T14:56:34;26.50;76.80
32600;DHT22;19277;51.778;7.912;2022-07-24T14:58:59;26.50;76.80
32600;DHT22;19277;51.778;7.912;2022-07-24T15:01:25;26.50;76.70
32600;DHT22;19277;51.778;7.912;2022-07-24T15:03:51;26.50;76.60
32600;DHT22;19277;51.778;7.912;2022-07-24T15:06:16;26.50;76.50
32600;DHT22;19277;51.778;7.912;2022-07-24T15:08:42;26.50;76.50
32600;DHT22;19277;51.778;7.912;2022-07-24T15:11:07;26.50;76.50
32600;DHT22;19277;51.778;7.912;2022-07-24T15:13:33;26.50;76.50
32600;DHT22;19277;51.778;7.912;2022-07-24T15:16:03;26.50;76.50
32600;DHT22;19277;51.778;7.912;2022-07-24T15:18:29;26.50;76.40
32600;DHT22;19277;51.778;7.912;2022-07-24T15:20:54;26.50;76.40
32600;DHT22;19277;51.778;7.912;2022-07-24T15:23:20;26.50;76.30
32600;DHT22;19277;51.778;7.912;2022-07-24T15:25:46;26.50;76.20
32600;DHT22;19277;51.778;7.912;2022-07-24T15:28:11;26.60;76.30
32600;DHT22;19277;51.778;7.912;2022-07-24T15:30:37;26.60;76.20
32600;DHT22;19277;51.778;7.912;2022-07-24T15:33:03;26.50;76.20
32600;DHT22;19277;51.778;7.912;2022-07-24T15:35:30;26.60;76.10
32600;DHT22;19277;51.778;7.912;2022-07-24T15:37:56;26.60;76.10
32600;DHT22;19277;51.778;7.912;2022-07-24T15:40:22;26.50;75.90
32600;DHT22;19277;51.778;7.912;2022-07-24T15:42:48;26.60;76.00
32600;DHT22;19277;51.778;7.912;2022-07-24T15:45:14;26.60;76.00
32600;DHT22;19277;51.778;7.912;2022-07-24T15:47:39;26.60;76.00
32600;DHT22;19277;51.778;7.912;2022-07-24T15:50:05;26.60;75.90
32600;DHT22;19277;51.778;7.912;2022-07-24T15:52:31;26.60;75.90
32600;DHT22;19277;51.778;7.912;2022-07-24T15:54:57;26.60;75.90
32600;DHT22;19277;51.778;7.912;2022-07-24T15:57:23;26.60;75.80
32600;DHT22;19277;51.778;7.912;2022-07-24T15:59:48;26.60;75.80
32600;DHT22;19277;51.778;7.912;2022-07-24T16:02:14;26.60;75.70
32600;DHT22;19277;51.778;7.912;2022-07-24T16:04:40;26.70;75.80
32600;DHT22;19277;51.778;7.912;2022-07-24T16:07:05;26.70;75.70